sensor_id;sensor_type;location;lat;lon;timestamp;pressure;altitude;pressure_sealevel;temperature;humidity
58471;BME280;44258;51.288;12.068;2023-07-20T00:01:26;100117.91;;;19.51;62.88
58471;BME280;44258;51.288;12.068;2023-07-20T00:04:13;100124.75;;;19.28;63.41
58471;BME280;44258;51.288;12.068;2023-07-20T00:07:00;100120.28;;;19.27;63.37
58471;BME280;44258;51.288;12.068;2023-07-20T00:09:47;100115.97;;;19.34;63.06
58471;BME280;44258;51.288;12.068;2023-07-20T00:12:34;100104.72;;;19.47;63.03
58471;BME280;44258;51.288;12.068;2023-07-20T00:15:21;100113.06;;;19.45;62.34
58471;BME280;44258;51.288;12.068;2023-07-20T00:18:09;100105.47;;;19.39;62.40
58471;BME280;44258;51.288;12.068;2023-07-20T00:20:56;100094.16;;;19.34;62.75
58471;BME280;44258;51.288;12.068;2023-07-20T00:23:45;100090.13;;;19.38;62.06
58471;BME280;44258;51.288;12.068;2023-07-20T00:26:32;100089.56;;;19.34;63.06
58471;BME280;44258;51.288;12.068;2023-07-20T00:29:18;100099.22;;;19.19;63.38
58471;BME280;44258;51.288;12.068;2023-07-20T00:32:05;100097.19;;;19.21;63.36
58471;BME280;44258;51.288;12.068;2023-07-20T00:34:53;100093.06;;;19.17;63.67
58471;BME280;44258;51.288;12.068;2023-07-20T00:37:40;100091.03;;;19.19;63.54
58471;BME280;44258;51.288;12.068;2023-07-20T00:40:27;100099.22;;;19.09;63.70
58471;BME280;44258;51.288;12.068;2023-07-20T00:43:14;100097.66;;;19.17;63.93
58471;BME280;44258;51.288;12.068;2023-07-20T00:46:00;100093.34;;;19.24;64.04
58471;BME280;44258;51.288;12.068;2023-07-20T00:48:48;100101.22;;;19.27;63.88
58471;BME280;44258;51.288;12.068;2023-07-20T00:51:37;100093.47;;;19.22;63.80
58471;BME280;44258;51.288;12.068;2023-07-20T00:54:23;100100.50;;;19.25;64.16
58471;BME280;44258;51.288;12.068;2023-07-20T00:57:10;100095.75;;;19.27;64.22
58471;BME280;44258;51.288;12.068;2023-07-20T01:00:00;100087.53;;;19.37;63.34
58471;BME280;44258;51.288;12.068;2023-07-20T01:02:47;100095.59;;;19.38;64.05
58471;BME280;44258;51.288;12.068;2023-07-20T01:05:36;100084.28;;;19.23;64.53
58471;BME280;44258;51.288;12.068;2023-07-20T01:08:29;100086.59;;;19.28;64.46
58471;BME280;44258;51.288;12.068;2023-07-20T01:11:21;100087.56;;;19.27;64.53
58471;BME280;44258;51.288;12.068;2023-07-20T01:14:11;100089.72;;;19.33;63.22
58471;BME280;44258;51.288;12.068;2023-07-20T01:16:58;100098.91;;;19.32;63.76
58471;BME280;44258;51.288;12.068;2023-07-20T01:19:45;100091.00;;;19.29;62.92
58471;BME280;44258;51.288;12.068;2023-07-20T01:22:38;100099.06;;;19.21;64.68
58471;BME280;44258;51.288;12.068;2023-07-20T01:28:37;100096.22;;;19.12;64.51
58471;BME280;44258;51.288;12.068;2023-07-20T01:31:30;100089.50;;;19.07;64.85
58471;BME280;44258;51.288;12.068;2023-07-20T01:34:18;100078.16;;;19.11;64.49
58471;BME280;44258;51.288;12.068;2023-07-20T01:37:05;100086.75;;;19.17;64.47
58471;BME280;44258;51.288;12.068;2023-07-20T01:39:53;100089.63;;;19.05;64.72
58471;BME280;44258;51.288;12.068;2023-07-20T01:42:43;100083.19;;;19.06;64.66
58471;BME280;44258;51.288;12.068;2023-07-20T01:45:30;100085.34;;;19.03;64.90
58471;BME280;44258;51.288;12.068;2023-07-20T01:48:18;100086.50;;;19.00;64.57
58471;BME280;44258;51.288;12.068;2023-07-20T01:51:04;100091.06;;;19.09;64.16
58471;BME280;44258;51.288;12.068;2023-07-20T01:53:51;100104.69;;;19.09;64.32
58471;BME280;44258;51.288;12.068;2023-07-20T01:56:38;100100.28;;;18.99;64.71
58471;BME280;44258;51.288;12.068;2023-07-20T01:59:25;100093.53;;;18.93;64.96
58471;BME280;44258;51.288;12.068;2023-07-20T02:02:12;100093.66;;;18.91;64.88
58471;BME280;44258;51.288;12.068;2023-07-20T02:05:06;100104.41;;;19.03;64.55
58471;BME280;44258;51.288;12.068;2023-07-20T02:07:53;100096.38;;;19.11;63.81
58471;BME280;44258;51.288;12.068;2023-07-20T02:10:39;100098.09;;;19.12;64.28
58471;BME280;44258;51.288;12.068;2023-07-20T02:13:26;100100.97;;;19.10;63.68
58471;BME280;44258;51.288;12.068;2023-07-20T02:16:13;100101.56;;;18.94;64.52
58471;BME280;44258;51.288;12.068;2023-07-20T02:19:00;100101.72;;;18.83;65.29
58471;BME280;44258;51.288;12.068;2023-07-20T02:21:48;100098.00;;;18.94;64.50
58471;BME280;44258;51.288;12.068;2023-07-20T02:24:35;100104.88;;;18.98;63.90
58471;BME280;44258;51.288;12.068;2023-07-20T02:27:21;100099.09;;;19.01;63.42
58471;BME280;44258;51.288;12.068;2023-07-20T02:30:08;100108.00;;;19.03;63.24
58471;BME280;44258;51.288;12.068;2023-07-20T02:32:55;100107.84;;;19.05;63.29
58471;BME280;44258;51.288;12.068;2023-07-20T02:35:45;100099.69;;;19.05;62.95
58471;BME280;44258;51.288;12.068;2023-07-20T02:38:33;100113.03;;;18.98;64.12
58471;BME280;44258;51.288;12.068;2023-07-20T02:41:20;100109.59;;;18.96;63.75
58471;BME280;44258;51.288;12.068;2023-07-20T02:44:07;100109.59;;;19.06;63.49
58471;BME280;44258;51.288;12.068;2023-07-20T02:46:55;100120.03;;;19.10;62.59
58471;BME280;44258;51.288;12.068;2023-07-20T02:49:42;100115.31;;;19.12;63.36
58471;BME280;44258;51.288;12.068;2023-07-20T02:52:29;100115.16;;;19.14;63.23
58471;BME280;44258;51.288;12.068;2023-07-20T02:55:17;100118.03;;;19.03;63.93
58471;BME280;44258;51.288;12.068;2023-07-20T02:58:04;100122.34;;;19.05;63.75
58471;BME280;44258;51.288;12.068;2023-07-20T03:00:51;100121.59;;;19.13;63.25
58471;BME280;44258;51.288;12.068;2023-07-20T03:03:38;100127.63;;;19.17;63.08
58471;BME280;44258;51.288;12.068;2023-07-20T03:06:24;100128.63;;;19.16;62.72
58471;BME280;44258;51.288;12.068;2023-07-20T03:09:11;100123.75;;;19.09;62.62
58471;BME280;44258;51.288;12.068;2023-07-20T03:11:59;100121.03;;;19.09;63.56
58471;BME280;44258;51.288;12.068;2023-07-20T03:14:46;100119.63;;;19.05;64.48
58471;BME280;44258;51.288;12.068;2023-07-20T03:17:33;100119.03;;;18.92;64.54
58471;BME280;44258;51.288;12.068;2023-07-20T03:20:20;100120.19;;;18.89;64.52
58471;BME280;44258;51.288;12.068;2023-07-20T03:23:07;100121.50;;;18.95;64.34
58471;BME280;44258;51.288;12.068;2023-07-20T03:25:53;100134.25;;;19.04;64.43
58471;BME280;44258;51.288;12.068;2023-07-20T03:28:42;100142.72;;;19.01;64.80
58471;BME280;44258;51.288;12.068;2023-07-20T03:31:29;100130.09;;;19.00;64.82
58471;BME280;44258;51.288;12.068;2023-07-20T03:34:16;100141.72;;;18.92;64.98
58471;BME280;44258;51.288;12.068;2023-07-20T03:37:03;100144.28;;;18.84;65.38
58471;BME280;44258;51.288;12.068;2023-07-20T03:39:50;100157.19;;;18.92;64.83
58471;BME280;44258;51.288;12.068;2023-07-20T03:42:37;100158.66;;;18.96;65.06
58471;BME280;44258;51.288;12.068;2023-07-20T03:45:25;100157.06;;;19.03;63.98
58471;BME280;44258;51.288;12.068;2023-07-20T03:48:12;100158.06;;;19.02;63.94
58471;BME280;44258;51.288;12.068;2023-07-20T03:50:59;100155.19;;;18.84;63.90
58471;BME280;44258;51.288;12.068;2023-07-20T03:53:46;100144.13;;;18.66;64.72
58471;BME280;44258;51.288;12.068;2023-07-20T03:56:33;100132.38;;;18.66;64.59
58471;BME280;44258;51.288;12.068;2023-07-20T03:59:20;100140.69;;;18.74;64.60
58471;BME280;44258;51.288;12.068;2023-07-20T04:02:09;100144.28;;;18.74;64.35
58471;BME280;44258;51.288;12.068;2023-07-20T04:04:55;100155.88;;;18.77;65.56
58471;BME280;44258;51.288;12.068;2023-07-20T04:07:42;100152.63;;;18.73;65.50
58471;BME280;44258;51.288;12.068;2023-07-20T04:10:29;100146.16;;;18.74;64.59
58471;BME280;44258;51.288;12.068;2023-07-20T04:13:16;100144.28;;;18.74;64.59
58471;BME280;44258;51.288;12.068;2023-07-20T04:16:03;100161.91;;;18.70;65.69
58471;BME280;44258;51.288;12.068;2023-07-20T04:18:51;100156.63;;;18.59;66.12
58471;BME280;44258;51.288;12.068;2023-07-20T04:21:39;100156.47;;;18.70;66.14
58471;BME280;44258;51.288;12.068;2023-07-20T04:24:26;100156.19;;;18.73;65.83
58471;BME280;44258;51.288;12.068;2023-07-20T04:27:13;100158.19;;;18.71;66.41
58471;BME280;44258;51.288;12.068;2023-07-20T04:29:59;100154.31;;;18.64;66.67
58471;BME280;44258;51.288;12.068;2023-07-20T04:32:46;100148.31;;;18.80;65.98
58471;BME280;44258;51.288;12.068;2023-07-20T04:35:57;100156.06;;;18.94;65.35
58471;BME280;44258;51.288;12.068;2023-07-20T04:38:44;100161.66;;;18.93;65.27
58471;BME280;44258;51.288;12.068;2023-07-20T04:41:31;100160.34;;;18.87;65.45
58471;BME280;44258;51.288;12.068;2023-07-20T04:44:18;100156.75;;;18.87;65.87
58471;BME280;44258;51.288;12.068;2023-07-20T04:47:05;100162.53;;;18.93;65.55
58471;BME280;44258;51.288;12.068;2023-07-20T04:49:51;100167.09;;;18.93;65.29
58471;BME280;44258;51.288;12.068;2023-07-20T04:52:40;100171.97;;;18.89;66.58
58471;BME280;44258;51.288;12.068;2023-07-20T04:55:26;100173.53;;;18.92;66.33
58471;BME280;44258;51.288;12.068;2023-07-20T04:58:13;100175.13;;;19.04;65.46
58471;BME280;44258;51.288;12.068;2023-07-20T05:01:00;100175.72;;;19.18;65.34
58471;BME280;44258;51.288;12.068;2023-07-20T05:03:47;100167.94;;;19.32;65.70
58471;BME280;44258;51.288;12.068;2023-07-20T05:06:36;100164.34;;;19.32;64.31
58471;BME280;44258;51.288;12.068;2023-07-20T05:09:25;100176.38;;;19.29;65.71
58471;BME280;44258;51.288;12.068;2023-07-20T05:12:12;100179.41;;;19.36;65.17
58471;BME280;44258;51.288;12.068;2023-07-20T05:14:59;100186.81;;;19.44;64.76
58471;BME280;44258;51.288;12.068;2023-07-20T05:17:47;100173.06;;;19.45;65.75
58471;BME280;44258;51.288;12.068;2023-07-20T05:20:36;100172.91;;;19.47;65.90
58471;BME280;44258;51.288;12.068;2023-07-20T05:23:22;100183.38;;;19.51;64.80
58471;BME280;44258;51.288;12.068;2023-07-20T05:26:12;100181.22;;;19.45;65.75
58471;BME280;44258;51.288;12.068;2023-07-20T05:29:00;100180.84;;;19.40;65.42
58471;BME280;44258;51.288;12.068;2023-07-20T05:31:47;100181.56;;;19.32;65.56
58471;BME280;44258;51.288;12.068;2023-07-20T05:34:34;100182.50;;;19.51;65.47
58471;BME280;44258;51.288;12.068;2023-07-20T05:37:21;100185.38;;;19.49;64.97
58471;BME280;44258;51.288;12.068;2023-07-20T05:40:08;100185.63;;;19.56;65.28
58471;BME280;44258;51.288;12.068;2023-07-20T05:42:58;100175.72;;;19.65;64.92
58471;BME280;44258;51.288;12.068;2023-07-20T05:45:46;100181.88;;;19.77;65.41
58471;BME280;44258;51.288;12.068;2023-07-20T05:48:33;100181.84;;;19.86;64.52
58471;BME280;44258;51.288;12.068;2023-07-20T05:51:20;100183.91;;;19.65;63.34
58471;BME280;44258;51.288;12.068;2023-07-20T05:54:07;100178.56;;;19.73;62.22
58471;BME280;44258;51.288;12.068;2023-07-20T05:56:57;100167.75;;;19.91;61.94
58471;BME280;44258;51.288;12.068;2023-07-20T05:59:45;100180.41;;;19.82;61.30
58471;BME280;44258;51.288;12.068;2023-07-20T06:02:32;100175.53;;;19.86;61.84
58471;BME280;44258;51.288;12.068;2023-07-20T06:05:19;100181.19;;;20.02;60.00
58471;BME280;44258;51.288;12.068;2023-07-20T06:08:06;100178.09;;;20.15;62.35
58471;BME280;44258;51.288;12.068;2023-07-20T06:10:53;100181.38;;;20.19;60.81
58471;BME280;44258;51.288;12.068;2023-07-20T06:13:40;100183.56;;;20.15;61.34
58471;BME280;44258;51.288;12.068;2023-07-20T06:16:30;100184.81;;;20.21;61.49
58471;BME280;44258;51.288;12.068;2023-07-20T06:19:17;100192.81;;;20.32;62.09
58471;BME280;44258;51.288;12.068;2023-07-20T06:22:04;100184.97;;;20.47;61.48
58471;BME280;44258;51.288;12.068;2023-07-20T06:24:51;100185.00;;;20.65;60.56
58471;BME280;44258;51.288;12.068;2023-07-20T06:27:37;100187.09;;;20.53;61.16
58471;BME280;44258;51.288;12.068;2023-07-20T06:30:24;100182.59;;;20.80;60.65
58471;BME280;44258;51.288;12.068;2023-07-20T06:33:12;100178.13;;;20.97;59.75
58471;BME280;44258;51.288;12.068;2023-07-20T06:36:02;100185.00;;;21.01;59.34
58471;BME280;44258;51.288;12.068;2023-07-20T06:38:49;100179.78;;;20.44;59.78
58471;BME280;44258;51.288;12.068;2023-07-20T06:41:36;100180.63;;;20.90;59.95
58471;BME280;44258;51.288;12.068;2023-07-20T06:44:23;100169.66;;;21.26;58.63
58471;BME280;44258;51.288;12.068;2023-07-20T06:47:15;100172.09;;;21.29;58.63
58471;BME280;44258;51.288;12.068;2023-07-20T06:50:04;100173.66;;;21.31;58.49
58471;BME280;44258;51.288;12.068;2023-07-20T06:52:52;100168.41;;;21.38;58.26
58471;BME280;44258;51.288;12.068;2023-07-20T06:55:41;100166.84;;;21.36;58.59
58471;BME280;44258;51.288;12.068;2023-07-20T06:58:28;100169.44;;;21.19;59.40
58471;BME280;44258;51.288;12.068;2023-07-20T07:01:15;100179.91;;;21.24;59.41
58471;BME280;44258;51.288;12.068;2023-07-20T07:04:02;100175.38;;;21.14;58.00
58471;BME280;44258;51.288;12.068;2023-07-20T07:06:52;100174.66;;;21.30;58.02
58471;BME280;44258;51.288;12.068;2023-07-20T07:09:39;100178.72;;;21.26;57.86
58471;BME280;44258;51.288;12.068;2023-07-20T07:12:26;100173.81;;;21.12;58.87
58471;BME280;44258;51.288;12.068;2023-07-20T07:15:12;100177.53;;;20.85;59.54
58471;BME280;44258;51.288;12.068;2023-07-20T07:17:59;100179.56;;;20.83;59.22
58471;BME280;44258;51.288;12.068;2023-07-20T07:20:52;100179.56;;;20.65;60.05
58471;BME280;44258;51.288;12.068;2023-07-20T07:23:43;100187.69;;;20.75;60.45
58471;BME280;44258;51.288;12.068;2023-07-20T07:26:29;100181.25;;;20.84;59.66
58471;BME280;44258;51.288;12.068;2023-07-20T07:29:16;100193.81;;;20.94;59.59
58471;BME280;44258;51.288;12.068;2023-07-20T07:32:04;100187.84;;;20.91;59.07
58471;BME280;44258;51.288;12.068;2023-07-20T07:34:51;100188.19;;;20.96;59.21
58471;BME280;44258;51.288;12.068;2023-07-20T07:37:37;100188.19;;;20.96;58.12
58471;BME280;44258;51.288;12.068;2023-07-20T07:40:25;100195.06;;;20.82;59.07
58471;BME280;44258;51.288;12.068;2023-07-20T07:43:12;100195.69;;;20.76;58.86
58471;BME280;44258;51.288;12.068;2023-07-20T07:45:59;100199.84;;;20.62;59.69
58471;BME280;44258;51.288;12.068;2023-07-20T07:48:46;100195.63;;;20.68;59.99
58471;BME280;44258;51.288;12.068;2023-07-20T07:51:33;100187.44;;;20.86;58.97
58471;BME280;44258;51.288;12.068;2023-07-20T07:54:20;100187.19;;;21.15;58.90
58471;BME280;44258;51.288;12.068;2023-07-20T07:57:08;100186.72;;;21.72;58.72
58471;BME280;44258;51.288;12.068;2023-07-20T07:59:54;100186.50;;;22.26;57.57
58471;BME280;44258;51.288;12.068;2023-07-20T08:02:41;100181.38;;;22.31;54.00
58471;BME280;44258;51.288;12.068;2023-07-20T08:05:31;100191.13;;;21.91;55.79
58471;BME280;44258;51.288;12.068;2023-07-20T08:08:18;100189.38;;;22.16;55.77
58471;BME280;44258;51.288;12.068;2023-07-20T08:11:05;100190.53;;;22.56;55.89
58471;BME280;44258;51.288;12.068;2023-07-20T08:13:53;100191.78;;;22.70;52.90
58471;BME280;44258;51.288;12.068;2023-07-20T08:16:43;100195.75;;;22.92;53.53
58471;BME280;44258;51.288;12.068;2023-07-20T08:19:32;100196.94;;;22.89;53.04
58471;BME280;44258;51.288;12.068;2023-07-20T08:22:25;100185.56;;;22.01;53.52
58471;BME280;44258;51.288;12.068;2023-07-20T08:25:12;100198.25;;;22.61;53.45
58471;BME280;44258;51.288;12.068;2023-07-20T08:28:01;100191.13;;;22.92;52.76
58471;BME280;44258;51.288;12.068;2023-07-20T08:30:50;100195.09;;;23.15;50.69
58471;BME280;44258;51.288;12.068;2023-07-20T08:33:36;100188.59;;;22.40;51.90
58471;BME280;44258;51.288;12.068;2023-07-20T08:36:23;100191.22;;;22.50;52.57
58471;BME280;44258;51.288;12.068;2023-07-20T08:39:10;100187.28;;;22.69;51.05
58471;BME280;44258;51.288;12.068;2023-07-20T08:41:57;100189.56;;;23.06;50.88
58471;BME280;44258;51.288;12.068;2023-07-20T08:44:49;100187.97;;;23.86;49.31
58471;BME280;44258;51.288;12.068;2023-07-20T08:47:40;100183.84;;;24.61;49.07
58471;BME280;44258;51.288;12.068;2023-07-20T08:50:28;100176.47;;;24.61;46.83
58471;BME280;44258;51.288;12.068;2023-07-20T08:53:16;100186.19;;;24.72;46.71
58471;BME280;44258;51.288;12.068;2023-07-20T08:56:03;100179.13;;;24.15;47.01
58471;BME280;44258;51.288;12.068;2023-07-20T08:58:50;100190.84;;;24.01;47.30
58471;BME280;44258;51.288;12.068;2023-07-20T09:01:38;100185.09;;;23.63;48.08
58471;BME280;44258;51.288;12.068;2023-07-20T09:04:27;100179.50;;;24.43;46.98
58471;BME280;44258;51.288;12.068;2023-07-20T09:07:16;100182.81;;;24.93;46.03
58471;BME280;44258;51.288;12.068;2023-07-20T09:10:04;100185.75;;;25.29;44.91
58471;BME280;44258;51.288;12.068;2023-07-20T09:12:51;100187.13;;;24.87;45.11
58471;BME280;44258;51.288;12.068;2023-07-20T09:15:38;100178.69;;;24.66;44.59
58471;BME280;44258;51.288;12.068;2023-07-20T09:18:28;100171.38;;;24.81;45.59
58471;BME280;44258;51.288;12.068;2023-07-20T09:21:16;100169.56;;;24.74;44.36
58471;BME280;44258;51.288;12.068;2023-07-20T09:24:04;100184.22;;;24.26;44.92
58471;BME280;44258;51.288;12.068;2023-07-20T09:26:52;100187.75;;;23.96;45.61
58471;BME280;44258;51.288;12.068;2023-07-20T09:29:47;100191.22;;;23.81;46.02
58471;BME280;44258;51.288;12.068;2023-07-20T09:32:38;100199.69;;;23.30;46.97
58471;BME280;44258;51.288;12.068;2023-07-20T09:35:25;100200.41;;;23.41;46.34
58471;BME280;44258;51.288;12.068;2023-07-20T09:38:13;100207.75;;;22.91;48.11
58471;BME280;44258;51.288;12.068;2023-07-20T09:41:00;100203.28;;;22.90;48.12
58471;BME280;44258;51.288;12.068;2023-07-20T09:43:47;100213.09;;;21.73;53.20
58471;BME280;44258;51.288;12.068;2023-07-20T09:46:41;100207.94;;;21.26;55.14
58471;BME280;44258;51.288;12.068;2023-07-20T09:49:27;100214.56;;;19.86;61.22
58471;BME280;44258;51.288;12.068;2023-07-20T09:52:14;100210.91;;;19.58;61.73
58471;BME280;44258;51.288;12.068;2023-07-20T09:55:05;100215.69;;;19.46;63.07
58471;BME280;44258;51.288;12.068;2023-07-20T09:57:53;100235.28;;;19.69;62.77
58471;BME280;44258;51.288;12.068;2023-07-20T10:00:42;100236.06;;;18.84;65.57
58471;BME280;44258;51.288;12.068;2023-07-20T10:03:31;100236.09;;;18.03;68.84
58471;BME280;44258;51.288;12.068;2023-07-20T10:06:19;100249.91;;;17.38;73.72
58471;BME280;44258;51.288;12.068;2023-07-20T10:09:08;100258.00;;;18.01;73.87
58471;BME280;44258;51.288;12.068;2023-07-20T10:11:58;100271.94;;;18.08;71.83
58471;BME280;44258;51.288;12.068;2023-07-20T10:14:48;100269.19;;;17.77;74.01
58471;BME280;44258;51.288;12.068;2023-07-20T10:17:40;100270.41;;;18.56;71.87
58471;BME280;44258;51.288;12.068;2023-07-20T10:20:35;100272.91;;;18.28;72.61
58471;BME280;44258;51.288;12.068;2023-07-20T10:23:22;100266.69;;;18.66;70.95
58471;BME280;44258;51.288;12.068;2023-07-20T10:26:10;100278.16;;;17.68;72.71
58471;BME280;44258;51.288;12.068;2023-07-20T10:28:59;100262.38;;;18.13;72.99
58471;BME280;44258;51.288;12.068;2023-07-20T10:31:46;100270.38;;;17.42;74.38
58471;BME280;44258;51.288;12.068;2023-07-20T10:34:33;100260.66;;;17.61;72.65
58471;BME280;44258;51.288;12.068;2023-07-20T10:40:31;100252.69;;;18.71;69.27
58471;BME280;44258;51.288;12.068;2023-07-20T10:43:18;100251.53;;;18.73;68.92
58471;BME280;44258;51.288;12.068;2023-07-20T10:46:07;100256.91;;;19.04;66.90
58471;BME280;44258;51.288;12.068;2023-07-20T10:49:00;100259.13;;;19.67;67.28
58471;BME280;44258;51.288;12.068;2023-07-20T10:51:48;100254.81;;;20.49;66.47
58471;BME280;44258;51.288;12.068;2023-07-20T10:54:46;100250.09;;;20.42;65.05
58471;BME280;44258;51.288;12.068;2023-07-20T10:57:34;100259.13;;;20.24;65.48
58471;BME280;44258;51.288;12.068;2023-07-20T11:00:21;100251.78;;;20.25;66.69
58471;BME280;44258;51.288;12.068;2023-07-20T11:03:12;100245.94;;;20.38;65.27
58471;BME280;44258;51.288;12.068;2023-07-20T11:06:29;100251.38;;;20.47;65.51
58471;BME280;44258;51.288;12.068;2023-07-20T11:09:21;100256.13;;;20.18;64.84
58471;BME280;44258;51.288;12.068;2023-07-20T11:12:11;100266.94;;;20.37;64.72
58471;BME280;44258;51.288;12.068;2023-07-20T11:14:59;100277.19;;;19.88;64.73
58471;BME280;44258;51.288;12.068;2023-07-20T11:17:45;100279.81;;;19.80;65.18
58471;BME280;44258;51.288;12.068;2023-07-20T11:20:33;100276.09;;;19.03;67.42
58471;BME280;44258;51.288;12.068;2023-07-20T11:23:20;100281.59;;;19.32;67.46
58471;BME280;44258;51.288;12.068;2023-07-20T11:26:07;100277.25;;;19.39;66.21
58471;BME280;44258;51.288;12.068;2023-07-20T11:28:55;100287.13;;;19.60;66.35
58471;BME280;44258;51.288;12.068;2023-07-20T11:31:42;100292.00;;;19.66;64.23
58471;BME280;44258;51.288;12.068;2023-07-20T11:34:30;100292.63;;;19.30;67.06
58471;BME280;44258;51.288;12.068;2023-07-20T11:37:18;100284.41;;;19.79;66.11
58471;BME280;44258;51.288;12.068;2023-07-20T11:40:05;100288.22;;;20.06;65.02
58471;BME280;44258;51.288;12.068;2023-07-20T11:42:52;100282.13;;;19.36;66.78
58471;BME280;44258;51.288;12.068;2023-07-20T11:45:39;100264.06;;;19.44;66.13
58471;BME280;44258;51.288;12.068;2023-07-20T11:48:26;100261.88;;;19.77;65.80
58471;BME280;44258;51.288;12.068;2023-07-20T11:51:13;100281.09;;;19.85;68.06
58471;BME280;44258;51.288;12.068;2023-07-20T11:54:02;100280.13;;;20.14;67.34
58471;BME280;44258;51.288;12.068;2023-07-20T11:56:53;100273.19;;;20.57;64.99
58471;BME280;44258;51.288;12.068;2023-07-20T11:59:40;100281.75;;;20.90;63.77
58471;BME280;44258;51.288;12.068;2023-07-20T12:02:38;100290.63;;;20.09;65.98
58471;BME280;44258;51.288;12.068;2023-07-20T12:05:25;100289.59;;;20.85;63.74
58471;BME280;44258;51.288;12.068;2023-07-20T12:08:12;100286.31;;;20.99;62.71
58471;BME280;44258;51.288;12.068;2023-07-20T12:11:01;100282.56;;;21.00;61.17
58471;BME280;44258;51.288;12.068;2023-07-20T12:13:47;100278.34;;;21.06;58.96
58471;BME280;44258;51.288;12.068;2023-07-20T12:16:35;100274.25;;;21.38;61.01
58471;BME280;44258;51.288;12.068;2023-07-20T12:19:24;100274.84;;;21.76;59.11
58471;BME280;44258;51.288;12.068;2023-07-20T12:22:12;100274.34;;;21.00;56.18
58471;BME280;44258;51.288;12.068;2023-07-20T12:24:59;100274.53;;;21.35;56.31
58471;BME280;44258;51.288;12.068;2023-07-20T12:27:48;100272.72;;;21.25;54.74
58471;BME280;44258;51.288;12.068;2023-07-20T12:30:35;100270.31;;;21.40;56.92
58471;BME280;44258;51.288;12.068;2023-07-20T12:33:22;100277.03;;;21.46;55.29
58471;BME280;44258;51.288;12.068;2023-07-20T12:36:10;100274.31;;;21.98;55.22
58471;BME280;44258;51.288;12.068;2023-07-20T12:38:57;100276.25;;;21.80;54.11
58471;BME280;44258;51.288;12.068;2023-07-20T12:41:46;100287.16;;;21.53;53.80
58471;BME280;44258;51.288;12.068;2023-07-20T12:44:34;100285.03;;;21.65;54.85
58471;BME280;44258;51.288;12.068;2023-07-20T12:47:21;100288.06;;;21.36;55.06
58471;BME280;44258;51.288;12.068;2023-07-20T12:50:08;100284.53;;;21.44;56.24
58471;BME280;44258;51.288;12.068;2023-07-20T12:52:56;100287.34;;;21.34;54.52
58471;BME280;44258;51.288;12.068;2023-07-20T12:55:43;100274.53;;;21.52;54.76
58471;BME280;44258;51.288;12.068;2023-07-20T12:58:30;100279.28;;;21.50;53.33
58471;BME280;44258;51.288;12.068;2023-07-20T13:01:18;100272.97;;;21.32;55.32
58471;BME280;44258;51.288;12.068;2023-07-20T13:04:05;100285.53;;;21.61;55.33
58471;BME280;44258;51.288;12.068;2023-07-20T13:06:54;100284.88;;;21.67;55.25
58471;BME280;44258;51.288;12.068;2023-07-20T13:09:41;100286.88;;;22.01;53.81
58471;BME280;44258;51.288;12.068;2023-07-20T13:12:28;100276.50;;;22.21;52.75
58471;BME280;44258;51.288;12.068;2023-07-20T13:15:15;100276.28;;;22.40;52.88
58471;BME280;44258;51.288;12.068;2023-07-20T13:18:04;100274.78;;;22.11;52.53
58471;BME280;44258;51.288;12.068;2023-07-20T13:20:51;100272.22;;;21.92;51.87
58471;BME280;44258;51.288;12.068;2023-07-20T13:23:38;100263.13;;;22.44;52.11
58471;BME280;44258;51.288;12.068;2023-07-20T13:26:24;100264.94;;;22.78;50.70
58471;BME280;44258;51.288;12.068;2023-07-20T13:29:11;100262.16;;;22.69;51.03
58471;BME280;44258;51.288;12.068;2023-07-20T13:31:58;100257.09;;;22.83;50.04
58471;BME280;44258;51.288;12.068;2023-07-20T13:34:47;100254.03;;;23.02;48.95
58471;BME280;44258;51.288;12.068;2023-07-20T13:37:34;100252.03;;;23.37;49.38
58471;BME280;44258;51.288;12.068;2023-07-20T13:40:21;100253.31;;;22.84;47.61
58471;BME280;44258;51.288;12.068;2023-07-20T13:43:08;100257.72;;;22.26;49.37
58471;BME280;44258;51.288;12.068;2023-07-20T13:45:55;100249.94;;;22.47;48.09
58471;BME280;44258;51.288;12.068;2023-07-20T13:48:42;100244.94;;;22.93;47.40
58471;BME280;44258;51.288;12.068;2023-07-20T13:51:30;100252.72;;;23.47;46.10
58471;BME280;44258;51.288;12.068;2023-07-20T13:54:17;100250.13;;;23.70;46.05
58471;BME280;44258;51.288;12.068;2023-07-20T13:57:04;100250.28;;;23.03;45.65
58471;BME280;44258;51.288;12.068;2023-07-20T13:59:50;100252.47;;;22.06;47.01
58471;BME280;44258;51.288;12.068;2023-07-20T14:02:37;100251.56;;;21.98;48.51
58471;BME280;44258;51.288;12.068;2023-07-20T14:05:24;100249.38;;;22.36;47.29
58471;BME280;44258;51.288;12.068;2023-07-20T14:08:12;100244.69;;;22.20;46.95
58471;BME280;44258;51.288;12.068;2023-07-20T14:11:00;100243.84;;;21.93;47.46
58471;BME280;44258;51.288;12.068;2023-07-20T14:13:47;100239.72;;;21.89;46.77
58471;BME280;44258;51.288;12.068;2023-07-20T14:16:34;100233.63;;;21.77;47.23
58471;BME280;44258;51.288;12.068;2023-07-20T14:19:21;100240.22;;;22.69;47.00
58471;BME280;44258;51.288;12.068;2023-07-20T14:22:08;100245.47;;;23.30;46.37
58471;BME280;44258;51.288;12.068;2023-07-20T14:24:56;100240.84;;;23.06;45.63
58471;BME280;44258;51.288;12.068;2023-07-20T14:27:44;100242.25;;;23.43;45.63
58471;BME280;44258;51.288;12.068;2023-07-20T14:30:31;100241.22;;;23.36;43.84
58471;BME280;44258;51.288;12.068;2023-07-20T14:33:17;100245.16;;;23.33;44.64